createdAt,value
2022-09-07T00:00:04.856Z,14.70
2022-09-07T00:02:31.641Z,11.55
2022-09-07T00:04:58.384Z,14.85
2022-09-07T00:07:25.146Z,14.27
2022-09-07T00:09:51.855Z,13.40
2022-09-07T00:12:18.619Z,13.75
2022-09-07T00:14:45.382Z,13.88
2022-09-07T00:17:12.054Z,17.23
2022-09-07T00:19:38.835Z,13.52
2022-09-07T00:22:06.614Z,14.85
2022-09-07T00:24:33.370Z,11.93
2022-09-07T00:27:00.216Z,12.50
2022-09-07T00:29:26.947Z,14.38
2022-09-07T00:31:53.836Z,15.07
2022-09-07T00:34:20.604Z,13.75
2022-09-07T00:36:47.415Z,14.68
2022-09-07T00:39:14.144Z,16.25
2022-09-07T00:41:40.866Z,13.30
2022-09-07T00:44:44.703Z,12.30
2022-09-07T00:47:45.195Z,18.55
2022-09-07T00:50:30.812Z,12.15
2022-09-07T00:53:10.094Z,13.77
2022-09-07T00:55:38.655Z,14.60
2022-09-07T00:58:07.065Z,16.48
2022-09-07T01:00:35.423Z,15.82
2022-09-07T01:03:04.138Z,12.68
2022-09-07T01:05:59.004Z,14.00
2022-09-07T01:08:26.374Z,13.95
2022-09-07T01:10:53.182Z,13.98
2022-09-07T01:13:19.896Z,13.18
2022-09-07T01:16:01.629Z,14.30
2022-09-07T01:18:52.832Z,16.05
2022-09-07T01:21:32.444Z,17.45
2022-09-07T01:24:20.045Z,11.25
2022-09-07T01:26:55.976Z,14.70
2022-09-07T01:29:42.104Z,13.75
2022-09-07T01:32:22.492Z,12.23
2022-09-07T01:34:54.705Z,14.23
2022-09-07T01:37:33.736Z,13.05
2022-09-07T01:40:17.153Z,13.15
2022-09-07T01:42:56.412Z,13.05
2022-09-07T01:45:31.081Z,13.80
2022-09-07T01:48:02.961Z,15.90
2022-09-07T01:50:41.022Z,15.80
2022-09-07T01:53:23.751Z,12.80
2022-09-07T01:56:01.512Z,14.82
2022-09-07T01:58:33.720Z,14.82
2022-09-07T02:01:10.006Z,15.93
2022-09-07T02:03:49.731Z,14.90
2022-09-07T02:06:23.493Z,13.05
2022-09-07T02:08:58.545Z,14.55
2022-09-07T02:11:34.542Z,14.80
2022-09-07T02:14:23.996Z,12.15
2022-09-07T02:17:18.572Z,13.85
2022-09-07T02:20:03.662Z,13.95
2022-09-07T02:22:34.062Z,15.63
2022-09-07T02:25:05.818Z,14.30
2022-09-07T02:27:45.785Z,16.58
2022-09-07T02:30:13.163Z,12.90
2022-09-07T02:32:39.972Z,17.15
2022-09-07T02:35:07.443Z,15.80
2022-09-07T02:37:35.902Z,13.70
2022-09-07T02:40:02.953Z,14.30
2022-09-07T02:42:32.765Z,18.08
2022-09-07T02:45:00.801Z,16.73
2022-09-07T02:47:36.026Z,15.00
2022-09-07T02:50:41.325Z,15.63
2022-09-07T02:53:39.504Z,19.20
2022-09-07T02:56:18.432Z,17.05
2022-09-07T02:58:58.405Z,18.93
2022-09-07T03:04:19.488Z,21.92
2022-09-07T03:06:59.563Z,19.38
2022-09-07T03:09:30.650Z,16.33
2022-09-07T03:11:57.761Z,15.90
2022-09-07T03:14:26.417Z,14.38
2022-09-07T03:16:57.176Z,15.18
2022-09-07T03:19:26.696Z,17.67
2022-09-07T03:21:53.492Z,17.55
2022-09-07T03:24:20.206Z,15.23
2022-09-07T03:26:52.164Z,14.73
2022-09-07T03:29:19.412Z,15.48
2022-09-07T03:31:46.582Z,15.00
2022-09-07T03:34:13.323Z,14.63
2022-09-07T03:36:40.634Z,15.85
2022-09-07T03:39:07.559Z,16.80
2022-09-07T03:41:42.209Z,16.73
2022-09-07T03:44:09.063Z,17.80
2022-09-07T03:46:35.876Z,17.88
2022-09-07T03:49:02.706Z,18.40
2022-09-07T03:51:29.533Z,15.57
2022-09-07T03:53:56.314Z,14.60
2022-09-07T03:56:24.907Z,16.63
2022-09-07T03:58:53.574Z,15.88
2022-09-07T04:01:24.683Z,14.68
2022-09-07T04:03:52.327Z,14.48
2022-09-07T04:06:19.901Z,14.05
2022-09-07T04:08:46.763Z,14.43
2022-09-07T04:11:16.434Z,18.58
2022-09-07T04:13:44.001Z,19.10
2022-09-07T04:16:18.226Z,16.00
2022-09-07T04:18:51.891Z,20.48
2022-09-07T04:21:19.046Z,15.13
2022-09-07T04:23:45.916Z,18.65
2022-09-07T04:26:21.692Z,15.15
2022-09-07T04:28:48.893Z,13.80
2022-09-07T04:31:17.115Z,14.52
2022-09-07T04:33:47.867Z,17.33
2022-09-07T04:36:15.988Z,14.77
2022-09-07T04:38:43.143Z,16.30
2022-09-07T04:41:13.825Z,13.52
2022-09-07T04:43:41.518Z,14.18
2022-09-07T04:46:21.955Z,14.73
2022-09-07T04:48:50.711Z,16.08
2022-09-07T04:51:18.386Z,13.65
2022-09-07T04:53:51.487Z,18.80
2022-09-07T04:56:26.878Z,14.57
2022-09-07T04:58:53.703Z,14.80
2022-09-07T05:01:33.084Z,14.60
2022-09-07T05:04:01.571Z,13.45
2022-09-07T05:06:28.725Z,12.82
2022-09-07T05:08:56.248Z,11.73
2022-09-07T05:11:28.764Z,12.80
2022-09-07T05:14:00.841Z,12.18
2022-09-07T05:16:28.512Z,14.80
2022-09-07T05:18:58.527Z,16.95
2022-09-07T05:21:28.553Z,13.40
2022-09-07T05:23:57.495Z,15.38
2022-09-07T05:26:26.994Z,15.27
2022-09-07T05:31:41.258Z,12.63
2022-09-07T05:34:35.769Z,12.50
2022-09-07T05:37:02.645Z,13.20
2022-09-07T05:39:30.270Z,12.23
2022-09-07T05:41:57.143Z,11.38
2022-09-07T05:47:11.251Z,14.00
2022-09-07T05:49:38.189Z,11.68
2022-09-07T05:52:04.974Z,12.02
2022-09-07T05:54:31.827Z,12.93
2022-09-07T05:56:58.637Z,11.18
2022-09-07T05:59:25.421Z,12.65
2022-09-07T06:01:52.397Z,14.23
2022-09-07T06:04:19.735Z,12.85
2022-09-07T06:07:04.669Z,12.38
2022-09-07T06:09:33.662Z,12.82
2022-09-07T06:12:00.566Z,13.68
2022-09-07T06:14:27.559Z,13.63
2022-09-07T06:16:54.348Z,15.40
2022-09-07T06:19:21.388Z,17.13
2022-09-07T06:21:48.363Z,18.00
2022-09-07T06:24:15.231Z,14.95
2022-09-07T06:26:42.091Z,16.60
2022-09-07T06:29:11.927Z,16.33
2022-09-07T06:34:26.498Z,15.40
2022-09-07T06:36:53.301Z,16.65
2022-09-07T06:39:20.123Z,17.23
2022-09-07T06:42:02.348Z,17.70
2022-09-07T06:44:29.266Z,14.45
2022-09-07T06:47:03.967Z,17.67
2022-09-07T06:49:31.421Z,21.02
2022-09-07T06:51:58.184Z,14.45
2022-09-07T06:57:11.824Z,16.50
2022-09-07T06:59:39.213Z,16.25
2022-09-07T07:02:07.183Z,15.75
2022-09-07T07:04:39.589Z,14.73
2022-09-07T07:07:11.846Z,14.73
2022-09-07T07:09:39.132Z,13.07
2022-09-07T07:12:06.074Z,12.95
2022-09-07T07:14:34.619Z,11.35
2022-09-07T07:17:02.376Z,12.45
2022-09-07T07:19:29.258Z,16.50
2022-09-07T07:22:29.640Z,15.60
2022-09-07T07:24:42.770Z,13.60
2022-09-07T07:27:09.714Z,13.70
2022-09-07T07:29:37.543Z,12.77
2022-09-07T07:32:04.464Z,15.18
2022-09-07T07:34:31.306Z,14.02
2022-09-07T07:36:58.141Z,13.95
2022-09-07T07:42:26.443Z,12.32
2022-09-07T07:48:13.823Z,13.33
2022-09-07T07:51:11.863Z,15.55
2022-09-07T07:53:42.440Z,11.85
2022-09-07T07:56:10.482Z,12.23
2022-09-07T07:58:38.442Z,11.05
2022-09-07T08:01:08.269Z,12.45
2022-09-07T08:03:36.632Z,12.82
2022-09-07T08:06:09.177Z,9.43
2022-09-07T08:08:37.553Z,10.57
2022-09-07T08:11:24.563Z,11.60
2022-09-07T08:13:51.918Z,12.70
2022-09-07T08:16:19.221Z,10.43
2022-09-07T08:18:47.103Z,10.90
2022-09-07T08:21:16.025Z,15.07
2022-09-07T08:23:43.188Z,9.90
2022-09-07T08:26:10.294Z,8.30
2022-09-07T08:28:39.363Z,11.20
2022-09-07T08:31:08.458Z,8.38
2022-09-07T08:33:37.796Z,7.95
2022-09-07T08:36:07.356Z,9.10
2022-09-07T08:41:04.053Z,10.57
2022-09-07T08:43:50.295Z,12.60
2022-09-07T08:46:32.311Z,9.00
2022-09-07T08:49:01.412Z,10.07
2022-09-07T08:51:43.421Z,9.00
2022-09-07T08:54:15.142Z,14.55
2022-09-07T09:00:05.712Z,10.57
2022-09-07T09:02:36.539Z,10.32
2022-09-07T09:05:19.435Z,8.57
2022-09-07T09:08:27.726Z,8.07
2022-09-07T09:11:16.444Z,9.98
2022-09-07T09:14:10.360Z,8.93
2022-09-07T09:17:01.047Z,13.10
2022-09-07T09:19:42.997Z,9.40
2022-09-07T09:22:20.495Z,8.60
2022-09-07T09:24:57.313Z,12.40
2022-09-07T09:27:24.032Z,9.85
2022-09-07T09:29:50.693Z,8.60
2022-09-07T09:32:40.010Z,9.10
2022-09-07T09:37:50.235Z,6.55
2022-09-07T09:40:31.388Z,11.13
2022-09-07T09:43:01.942Z,8.55
2022-09-07T09:46:12.266Z,9.55
2022-09-07T09:48:32.261Z,8.63
2022-09-07T09:53:57.855Z,8.77
2022-09-07T09:56:45.493Z,7.22
2022-09-07T10:05:26.617Z,12.27
2022-09-07T10:07:54.049Z,10.05
2022-09-07T10:10:21.662Z,6.72
2022-09-07T10:12:54.184Z,7.20
2022-09-07T10:15:41.380Z,9.60
2022-09-07T10:18:18.861Z,8.57
2022-09-07T10:20:45.773Z,7.65
2022-09-07T10:23:24.228Z,7.43
2022-09-07T10:25:51.401Z,7.63
2022-09-07T10:28:21.299Z,7.55
2022-09-07T10:30:48.111Z,6.63
2022-09-07T10:33:24.453Z,7.35
2022-09-07T10:36:00.592Z,8.35
2022-09-07T10:38:32.325Z,7.10
2022-09-07T10:41:09.713Z,8.35
2022-09-07T10:43:45.941Z,9.70
2022-09-07T10:49:23.584Z,5.68
2022-09-07T10:52:09.427Z,8.05
2022-09-07T10:54:59.625Z,7.80
2022-09-07T10:57:52.179Z,7.55
2022-09-07T11:00:21.593Z,8.90
2022-09-07T11:03:26.404Z,8.30
2022-09-07T11:06:14.096Z,8.70
2022-09-07T11:09:17.216Z,5.45
2022-09-07T11:12:07.389Z,3.97
2022-09-07T11:14:44.688Z,8.57
2022-09-07T11:17:19.173Z,3.90
2022-09-07T11:19:57.534Z,6.25
2022-09-07T11:22:40.046Z,4.40
2022-09-07T11:25:30.332Z,5.05
2022-09-07T11:28:07.804Z,6.50
2022-09-07T11:30:47.850Z,7.53
2022-09-07T11:33:24.446Z,7.78
2022-09-07T11:36:02.316Z,5.22
2022-09-07T11:38:45.247Z,6.43
2022-09-07T11:41:21.015Z,4.45
2022-09-07T11:44:00.992Z,6.82
2022-09-07T11:46:50.458Z,7.38
2022-09-07T11:49:24.919Z,6.60
2022-09-07T11:52:10.846Z,4.88
2022-09-07T11:55:06.526Z,5.18
2022-09-07T11:58:07.375Z,4.28
2022-09-07T12:00:37.129Z,4.10
2022-09-07T12:03:23.445Z,4.85
2022-09-07T12:06:11.551Z,6.90
2022-09-07T12:08:56.567Z,5.57
2022-09-07T12:11:23.630Z,5.43
2022-09-07T12:14:12.015Z,5.63
2022-09-07T12:16:57.019Z,5.07
2022-09-07T12:19:26.648Z,7.18
2022-09-07T12:21:53.311Z,5.80
2022-09-07T12:24:41.282Z,6.15
2022-09-07T12:27:19.924Z,5.47
2022-09-07T12:29:48.710Z,4.10
2022-09-07T12:32:58.383Z,6.47
2022-09-07T12:35:28.598Z,3.97
2022-09-07T12:38:17.427Z,4.35
2022-09-07T12:40:58.871Z,5.38
2022-09-07T12:43:55.425Z,6.15
2022-09-07T12:46:35.143Z,10.40
2022-09-07T12:49:14.026Z,4.60
2022-09-07T12:54:37.972Z,10.93
2022-09-07T12:57:29.654Z,7.82
2022-09-07T12:59:56.549Z,4.90
2022-09-07T13:02:42.093Z,5.45
2022-09-07T13:05:24.201Z,4.78
2022-09-07T13:08:27.997Z,5.30
2022-09-07T13:10:54.849Z,8.00
2022-09-07T13:16:17.643Z,6.93
2022-09-07T13:18:46.681Z,7.50
2022-09-07T13:21:15.070Z,7.18
2022-09-07T13:23:45.527Z,4.75
2022-09-07T13:26:34.107Z,4.43
2022-09-07T13:29:11.591Z,6.10
2022-09-07T13:32:05.574Z,7.32
2022-09-07T13:34:32.343Z,5.75
2022-09-07T13:37:00.662Z,4.50
2022-09-07T13:39:29.234Z,8.77
2022-09-07T13:41:58.418Z,4.93
2022-09-07T13:47:07.552Z,4.82
2022-09-07T13:50:00.528Z,4.30
2022-09-07T13:53:02.966Z,3.78
2022-09-07T13:55:43.403Z,4.40
2022-09-07T13:58:39.425Z,4.70
2022-09-07T14:01:16.266Z,5.07
2022-09-07T14:04:09.572Z,4.57
2022-09-07T14:06:38.252Z,6.55
2022-09-07T14:09:07.171Z,4.28
2022-09-07T14:11:55.139Z,4.03
2022-09-07T14:14:26.316Z,5.22
2022-09-07T14:17:06.332Z,5.85
2022-09-07T14:19:41.000Z,7.32
2022-09-07T14:22:27.937Z,4.00
2022-09-07T14:24:59.822Z,5.55
2022-09-07T14:27:35.874Z,6.00
2022-09-07T14:30:21.937Z,6.25
2022-09-07T14:32:52.608Z,7.28
2022-09-07T14:35:22.588Z,5.25
2022-09-07T14:37:50.950Z,10.48
2022-09-07T14:40:21.992Z,4.75
2022-09-07T14:42:55.917Z,5.50
2022-09-07T14:45:22.592Z,3.10
2022-09-07T14:47:55.263Z,3.78
2022-09-07T14:50:31.277Z,4.47
2022-09-07T14:55:47.155Z,6.38
2022-09-07T14:58:13.860Z,6.38
2022-09-07T15:03:38.758Z,4.57
2022-09-07T15:06:06.959Z,5.35
2022-09-07T15:08:41.380Z,7.35
2022-09-07T15:14:18.228Z,7.28
2022-09-07T15:19:44.501Z,3.63
2022-09-07T15:22:13.361Z,4.97
2022-09-07T15:24:40.217Z,4.95
2022-09-07T15:27:21.852Z,7.78
2022-09-07T15:29:48.597Z,3.83
2022-09-07T15:32:17.987Z,5.07
2022-09-07T15:34:45.117Z,6.05
2022-09-07T15:39:58.848Z,4.18
2022-09-07T15:45:13.150Z,6.05
2022-09-07T15:47:47.034Z,8.25
2022-09-07T15:50:18.116Z,9.23
2022-09-07T15:52:46.338Z,4.43
2022-09-07T15:55:14.455Z,4.68
2022-09-07T15:57:59.524Z,7.97
2022-09-07T16:00:30.692Z,6.97
2022-09-07T16:03:06.833Z,8.20
2022-09-07T16:05:34.634Z,4.38
2022-09-07T16:11:05.397Z,3.92
2022-09-07T16:13:33.198Z,7.90
2022-09-07T16:16:00.340Z,6.53
2022-09-07T16:18:31.263Z,7.82
2022-09-07T16:21:11.822Z,5.82
2022-09-07T16:23:41.296Z,8.63
2022-09-07T16:26:10.651Z,5.40
2022-09-07T16:31:07.714Z,4.05
2022-09-07T16:38:48.452Z,6.15
2022-09-07T16:41:20.447Z,7.38
2022-09-07T16:43:58.662Z,6.97
2022-09-07T16:46:27.700Z,5.30
2022-09-07T16:48:54.800Z,3.35
2022-09-07T16:51:22.922Z,4.72
2022-09-07T16:53:52.111Z,6.45
2022-09-07T16:56:21.137Z,8.15
2022-09-07T16:58:50.310Z,4.50
2022-09-07T17:01:19.906Z,5.82
2022-09-07T17:06:14.302Z,5.38
2022-09-07T17:08:41.491Z,6.65
2022-09-07T17:11:13.130Z,6.70
2022-09-07T17:13:41.565Z,5.65
2022-09-07T17:16:22.432Z,5.07
2022-09-07T17:21:39.099Z,4.85
2022-09-07T17:24:07.282Z,6.45
2022-09-07T17:26:34.751Z,6.10
2022-09-07T17:29:01.847Z,6.63
2022-09-07T17:34:19.823Z,5.72
2022-09-07T17:36:46.867Z,6.22
2022-09-07T17:39:15.297Z,7.65
2022-09-07T17:41:43.481Z,4.22
2022-09-07T17:44:10.200Z,5.63
2022-09-07T17:46:37.061Z,10.40
2022-09-07T17:49:04.135Z,4.30
2022-09-07T17:51:32.614Z,7.43
2022-09-07T17:54:12.649Z,4.57
2022-09-07T17:56:41.306Z,7.93
2022-09-07T18:01:56.290Z,7.53
2022-09-07T18:04:23.686Z,6.15
2022-09-07T18:06:51.044Z,6.53
2022-09-07T18:09:20.156Z,5.95
2022-09-07T18:11:48.966Z,7.18
2022-09-07T18:14:16.902Z,8.77
2022-09-07T18:16:46.385Z,5.38
2022-09-07T18:19:14.295Z,6.53
2022-09-07T18:21:44.305Z,5.13
2022-09-07T18:24:18.964Z,6.15
2022-09-07T18:26:52.259Z,6.40
2022-09-07T18:29:32.382Z,6.55
2022-09-07T18:32:02.696Z,6.88
2022-09-07T18:34:29.843Z,9.50
2022-09-07T18:36:58.572Z,6.00
2022-09-07T18:39:27.135Z,6.17
2022-09-07T18:41:55.464Z,4.30
2022-09-07T18:47:17.518Z,5.25
2022-09-07T18:49:49.174Z,6.32
2022-09-07T18:55:04.074Z,6.03
2022-09-07T18:57:32.216Z,8.27
2022-09-07T18:59:59.282Z,7.88
2022-09-07T19:02:26.856Z,7.38
2022-09-07T19:07:42.321Z,5.80
2022-09-07T19:10:13.885Z,7.13
2022-09-07T19:12:46.442Z,9.70
2022-09-07T19:15:19.950Z,7.45
2022-09-07T19:17:48.612Z,7.72
2022-09-07T19:20:15.883Z,9.57
2022-09-07T19:22:43.225Z,4.50
2022-09-07T19:25:10.981Z,7.03
2022-09-07T19:27:38.322Z,7.28
2022-09-07T19:30:06.125Z,7.20
2022-09-07T19:32:33.525Z,5.80
2022-09-07T19:35:00.677Z,6.13
2022-09-07T19:37:29.474Z,8.88
2022-09-07T19:39:56.318Z,6.33
2022-09-07T19:42:24.980Z,4.90
2022-09-07T19:44:53.273Z,8.13
2022-09-07T19:47:21.274Z,6.45
2022-09-07T19:49:48.394Z,6.10
2022-09-07T19:52:15.886Z,6.53
2022-09-07T19:54:43.065Z,6.70
2022-09-07T19:57:11.133Z,6.38
2022-09-07T19:59:38.303Z,11.93
2022-09-07T20:02:06.684Z,6.68
2022-09-07T20:04:34.332Z,9.48
2022-09-07T20:07:01.762Z,6.18
2022-09-07T20:09:28.824Z,7.55
2022-09-07T20:11:55.703Z,6.95
2022-09-07T20:14:22.827Z,7.47
2022-09-07T20:16:50.125Z,6.68
2022-09-07T20:19:17.709Z,10.10
2022-09-07T20:21:44.927Z,12.63
2022-09-07T20:24:13.116Z,5.70
2022-09-07T20:26:40.021Z,8.85
2022-09-07T20:29:26.087Z,11.70
2022-09-07T20:31:54.699Z,9.35
2022-09-07T20:34:22.591Z,15.73
2022-09-07T20:36:50.482Z,7.47
2022-09-07T20:39:17.525Z,8.18
2022-09-07T20:41:44.625Z,10.55
2022-09-07T20:44:14.383Z,8.55
2022-09-07T20:49:09.209Z,7.93
2022-09-07T20:51:40.429Z,8.45
2022-09-07T20:54:08.525Z,8.85
2022-09-07T20:56:35.427Z,9.05
2022-09-07T20:59:04.076Z,10.52
2022-09-07T21:01:32.703Z,7.47
2022-09-07T21:04:00.894Z,7.38
2022-09-07T21:06:29.098Z,8.82
2022-09-07T21:08:57.397Z,11.43
2022-09-07T21:11:29.285Z,9.50
2022-09-07T21:14:01.233Z,6.95
2022-09-07T21:16:28.838Z,10.07
2022-09-07T21:18:57.945Z,8.93
2022-09-07T21:21:26.675Z,8.02
2022-09-07T21:23:58.145Z,9.20
2022-09-07T21:26:26.492Z,7.03
2022-09-07T21:29:02.272Z,10.25
2022-09-07T21:31:31.606Z,8.43
2022-09-07T21:34:01.062Z,8.02
2022-09-07T21:36:28.545Z,13.77
2022-09-07T21:38:55.993Z,11.25
2022-09-07T21:41:24.668Z,8.93
2022-09-07T21:43:56.289Z,7.82
2022-09-07T21:46:23.489Z,9.23
2022-09-07T21:48:58.393Z,8.60
2022-09-07T21:51:26.286Z,9.00
2022-09-07T21:53:54.945Z,9.52
2022-09-07T21:56:29.092Z,15.75
2022-09-07T21:58:57.535Z,11.00
2022-09-07T22:01:26.231Z,8.25
2022-09-07T22:03:57.645Z,9.20
2022-09-07T22:06:25.183Z,9.25
2022-09-07T22:08:51.992Z,9.57
2022-09-07T22:11:21.677Z,9.68
2022-09-07T22:16:15.723Z,13.50
2022-09-07T22:18:44.873Z,10.48
2022-09-07T22:21:15.948Z,8.68
2022-09-07T22:23:51.163Z,10.23
2022-09-07T22:26:20.899Z,11.23
2022-09-07T22:31:17.055Z,9.18
2022-09-07T22:33:45.334Z,11.75
2022-09-07T22:36:19.788Z,8.52
2022-09-07T22:38:49.055Z,9.52
2022-09-07T22:41:21.072Z,11.25
2022-09-07T22:43:50.128Z,9.38
2022-09-07T22:46:19.038Z,8.95
2022-09-07T22:48:46.408Z,9.30
2022-09-07T22:51:13.200Z,9.43
2022-09-07T22:53:41.586Z,8.93
2022-09-07T22:56:10.817Z,7.57
2022-09-07T22:58:38.377Z,16.42
2022-09-07T23:03:35.928Z,10.35
2022-09-07T23:06:02.992Z,10.77
2022-09-07T23:08:30.210Z,11.35
2022-09-07T23:11:05.207Z,9.82
2022-09-07T23:13:33.287Z,11.98
2022-09-07T23:16:07.422Z,10.82
2022-09-07T23:18:40.082Z,13.23
2022-09-07T23:21:06.999Z,8.73
2022-09-07T23:23:33.769Z,10.77
2022-09-07T23:26:02.507Z,11.30
2022-09-07T23:28:30.254Z,11.70
2022-09-07T23:30:57.763Z,10.52
2022-09-07T23:33:30.977Z,11.13
2022-09-07T23:35:58.969Z,11.60
2022-09-07T23:38:26.406Z,10.68
2022-09-07T23:40:54.677Z,10.23
2022-09-07T23:43:22.612Z,12.25
2022-09-07T23:45:49.342Z,11.02
2022-09-07T23:48:16.653Z,13.50
2022-09-07T23:50:44.605Z,13.40
2022-09-07T23:53:12.206Z,10.50
2022-09-07T23:55:39.732Z,10.68
2022-09-07T23:58:07.797Z,10.45
